createdAt,value
2023-03-20T00:00:31.551Z,15.00
2023-03-20T00:05:33.758Z,16.30
2023-03-20T00:10:38.689Z,19.53
2023-03-20T00:15:44.079Z,20.07
2023-03-20T00:20:47.321Z,13.80
2023-03-20T00:25:49.524Z,14.43
2023-03-20T00:30:52.791Z,15.53
2023-03-20T00:35:56.149Z,18.97
2023-03-20T00:40:58.226Z,12.73
2023-03-20T00:46:00.485Z,18.70
2023-03-20T00:51:02.325Z,17.57
2023-03-20T00:56:05.602Z,16.73
2023-03-20T01:01:08.313Z,20.87
2023-03-20T01:06:13.467Z,18.93
2023-03-20T01:11:19.599Z,15.43
2023-03-20T01:16:26.239Z,17.77
2023-03-20T01:21:28.316Z,17.70
2023-03-20T01:26:34.400Z,12.83
2023-03-20T01:31:36.672Z,14.50
2023-03-20T01:36:40.523Z,13.83
2023-03-20T01:41:42.897Z,13.80
2023-03-20T01:46:45.007Z,14.50
2023-03-20T01:51:53.288Z,20.00
2023-03-20T01:57:04.707Z,15.07
2023-03-20T02:02:10.258Z,16.20
2023-03-20T02:07:15.898Z,23.23
2023-03-20T02:12:38.846Z,17.43
2023-03-20T02:17:43.575Z,18.67
2023-03-20T02:23:09.318Z,14.90
2023-03-20T02:28:28.038Z,15.73
2023-03-20T02:33:58.951Z,17.00
2023-03-20T02:39:38.708Z,18.30
2023-03-20T02:45:07.420Z,17.17
2023-03-20T02:50:17.865Z,20.73
2023-03-20T02:55:34.203Z,19.20
2023-03-20T03:00:53.125Z,21.47
2023-03-20T03:06:03.063Z,17.93
2023-03-20T03:11:08.635Z,25.43
2023-03-20T03:16:17.764Z,26.00
2023-03-20T03:21:21.731Z,24.37
2023-03-20T03:26:31.585Z,25.20
2023-03-20T03:31:33.734Z,26.27
2023-03-20T03:36:43.128Z,24.53
2023-03-20T03:42:01.375Z,28.37
2023-03-20T03:47:20.190Z,24.50
2023-03-20T03:52:24.698Z,25.23
2023-03-20T03:57:36.810Z,32.53
2023-03-20T04:02:49.467Z,30.97
2023-03-20T04:07:55.371Z,26.73
2023-03-20T04:12:57.516Z,30.37
2023-03-20T04:17:59.904Z,29.17
2023-03-20T04:23:02.129Z,28.20
2023-03-20T04:28:05.614Z,27.80
2023-03-20T04:33:32.447Z,24.00
2023-03-20T04:38:58.135Z,21.03
2023-03-20T04:44:01.171Z,25.27
2023-03-20T04:49:04.155Z,19.87
2023-03-20T04:54:06.060Z,21.10
2023-03-20T04:59:08.327Z,21.03
2023-03-20T05:04:10.592Z,23.60
2023-03-20T05:09:12.535Z,24.23
2023-03-20T05:14:15.403Z,23.27
2023-03-20T05:19:43.076Z,22.47
2023-03-20T05:24:48.299Z,26.77
2023-03-20T05:30:14.939Z,21.83
2023-03-20T05:35:38.877Z,22.80
2023-03-20T05:41:01.299Z,19.23
2023-03-20T05:46:14.323Z,21.07
2023-03-20T05:51:34.846Z,18.63
2023-03-20T05:57:03.409Z,23.43
2023-03-20T06:02:26.046Z,17.40
2023-03-20T06:07:41.521Z,16.50
2023-03-20T06:12:47.612Z,18.03
2023-03-20T06:17:51.315Z,17.57
2023-03-20T06:22:53.730Z,14.17
2023-03-20T06:27:58.550Z,20.63
2023-03-20T06:33:01.289Z,18.37
2023-03-20T06:38:12.699Z,14.83
2023-03-20T06:43:14.741Z,18.37
2023-03-20T06:48:24.011Z,16.10
2023-03-20T06:53:27.583Z,15.23
2023-03-20T06:58:37.040Z,12.70
2023-03-20T07:03:40.101Z,13.93
2023-03-20T07:08:43.123Z,14.27
2023-03-20T07:13:47.424Z,13.33
2023-03-20T07:19:02.773Z,14.70
2023-03-20T07:24:09.382Z,12.17
2023-03-20T07:29:11.637Z,14.87
2023-03-20T07:34:15.821Z,16.93
2023-03-20T07:39:19.430Z,14.60
2023-03-20T07:44:32.632Z,20.00
2023-03-20T07:49:36.000Z,14.03
2023-03-20T07:54:38.556Z,15.10
2023-03-20T07:59:40.773Z,21.03
2023-03-20T08:04:43.538Z,9.37
2023-03-20T08:09:45.651Z,11.93
2023-03-20T08:14:47.799Z,29.60
2023-03-20T08:19:49.751Z,11.17
2023-03-20T08:24:51.906Z,20.17
2023-03-20T08:29:54.281Z,14.17
2023-03-20T08:34:56.291Z,12.10
2023-03-20T08:39:58.298Z,14.87
2023-03-20T08:45:00.664Z,11.50
2023-03-20T08:50:02.890Z,7.37
2023-03-20T08:55:06.839Z,18.03
2023-03-20T09:00:15.183Z,17.27
2023-03-20T09:05:17.886Z,9.60
2023-03-20T09:10:20.137Z,17.50
2023-03-20T09:15:22.058Z,14.47
2023-03-20T09:20:24.053Z,14.37
2023-03-20T09:25:26.617Z,14.77
2023-03-20T09:30:28.705Z,12.47
2023-03-20T09:35:31.371Z,16.77
2023-03-20T09:40:56.924Z,13.60
2023-03-20T09:46:17.410Z,10.20
2023-03-20T09:51:34.333Z,16.23
2023-03-20T09:56:37.300Z,12.13
2023-03-20T10:02:14.671Z,11.07
2023-03-20T10:07:18.046Z,13.87
2023-03-20T10:12:46.964Z,11.73
2023-03-20T10:17:54.118Z,15.33
2023-03-20T10:23:06.620Z,16.87
2023-03-20T10:28:32.716Z,10.17
2023-03-20T10:33:52.053Z,11.30
2023-03-20T10:39:03.037Z,11.70
2023-03-20T10:44:10.563Z,10.90
2023-03-20T10:49:29.843Z,9.20
2023-03-20T10:54:36.761Z,13.73
2023-03-20T10:59:48.946Z,11.07
2023-03-20T11:04:51.315Z,17.10
2023-03-20T11:10:05.523Z,13.83
2023-03-20T11:15:34.451Z,7.67
2023-03-20T11:20:49.689Z,13.37
2023-03-20T11:26:00.974Z,9.67
2023-03-20T11:31:08.165Z,15.17
2023-03-20T11:36:19.303Z,12.10
2023-03-20T11:41:27.356Z,11.40
2023-03-20T11:46:29.309Z,10.98
2023-03-20T11:51:31.646Z,9.97
2023-03-20T11:56:35.521Z,11.97
2023-03-20T12:01:48.812Z,11.82
2023-03-20T12:06:54.233Z,6.82
2023-03-20T12:12:01.254Z,8.70
2023-03-20T12:17:12.082Z,11.73
2023-03-20T12:22:27.212Z,14.52
2023-03-20T12:27:46.250Z,7.82
2023-03-20T12:33:15.730Z,12.27
2023-03-20T12:38:36.368Z,9.40
2023-03-20T12:44:05.331Z,14.63
2023-03-20T12:49:20.098Z,13.13
2023-03-20T12:54:55.851Z,11.30
2023-03-20T13:00:21.170Z,9.38
2023-03-20T13:05:36.996Z,12.45
2023-03-20T13:11:06.046Z,11.68
2023-03-20T13:16:40.624Z,12.35
2023-03-20T13:21:48.013Z,9.95
2023-03-20T13:27:06.275Z,11.93
2023-03-20T13:32:35.584Z,14.47
2023-03-20T13:37:42.839Z,16.73
2023-03-20T13:43:22.527Z,13.43
2023-03-20T13:48:34.353Z,14.10
2023-03-20T13:53:57.607Z,15.53
2023-03-20T13:59:38.758Z,21.38
2023-03-20T14:04:41.771Z,14.57
2023-03-20T14:09:44.141Z,9.60
2023-03-20T14:14:55.659Z,12.60
2023-03-20T14:20:09.223Z,10.50
2023-03-20T14:25:21.013Z,13.23
2023-03-20T14:30:32.225Z,14.47
2023-03-20T14:35:46.341Z,16.13
2023-03-20T14:41:12.529Z,14.70
2023-03-20T14:46:39.392Z,10.67
2023-03-20T14:51:46.016Z,14.20
2023-03-20T14:56:52.243Z,18.67
2023-03-20T15:02:02.099Z,14.93
2023-03-20T15:07:14.809Z,14.80
2023-03-20T15:12:24.467Z,13.10
2023-03-20T15:17:48.865Z,19.10
2023-03-20T15:22:58.018Z,11.53
2023-03-20T15:28:00.802Z,11.73
2023-03-20T15:33:03.270Z,16.23
2023-03-20T15:38:07.878Z,12.60
2023-03-20T15:43:15.082Z,11.67
2023-03-20T15:48:20.763Z,22.33
2023-03-20T15:53:44.690Z,14.63
2023-03-20T15:58:52.620Z,14.47
2023-03-20T16:03:59.425Z,15.87
2023-03-20T16:09:06.779Z,18.47
2023-03-20T16:14:17.166Z,15.67
2023-03-20T16:19:20.873Z,16.70
2023-03-20T16:24:34.815Z,15.20
2023-03-20T16:29:43.103Z,17.13
2023-03-20T16:34:51.474Z,16.40
2023-03-20T16:40:33.044Z,16.67
2023-03-20T16:45:36.525Z,15.03
2023-03-20T16:50:40.888Z,10.10
2023-03-20T16:55:48.998Z,18.10
2023-03-20T17:00:57.262Z,14.90
2023-03-20T17:06:04.984Z,15.67
2023-03-20T17:11:13.395Z,15.37
2023-03-20T17:16:20.960Z,14.33
2023-03-20T17:21:23.207Z,14.97
2023-03-20T17:26:25.739Z,11.03
2023-03-20T17:31:28.253Z,15.73
2023-03-20T17:36:33.168Z,17.03
2023-03-20T17:41:35.530Z,14.93
2023-03-20T17:46:53.894Z,16.47
2023-03-20T17:51:59.263Z,16.67
2023-03-20T17:57:02.214Z,10.97
2023-03-20T18:02:04.617Z,12.73
2023-03-20T18:07:08.764Z,14.50
2023-03-20T18:12:16.986Z,19.40
2023-03-20T18:17:19.000Z,15.67
2023-03-20T18:22:21.108Z,13.27
2023-03-20T18:27:24.001Z,17.50
2023-03-20T18:32:26.309Z,12.80
2023-03-20T18:37:28.601Z,20.47
2023-03-20T18:42:30.715Z,13.23
2023-03-20T18:47:32.853Z,10.70
2023-03-20T18:52:35.428Z,15.03
2023-03-20T18:57:44.012Z,16.17
2023-03-20T19:02:46.058Z,20.60
2023-03-20T19:07:48.940Z,25.80
2023-03-20T19:12:51.685Z,18.43
2023-03-20T19:17:54.724Z,11.30
2023-03-20T19:22:57.171Z,14.60
2023-03-20T19:28:00.838Z,14.60
2023-03-20T19:33:04.005Z,14.83
2023-03-20T19:38:06.348Z,11.27
2023-03-20T19:43:09.034Z,11.03
2023-03-20T19:48:46.102Z,14.60
2023-03-20T19:53:52.817Z,13.13
2023-03-20T19:58:55.018Z,11.27
2023-03-20T20:03:58.398Z,15.37
2023-03-20T20:09:01.721Z,14.20
2023-03-20T20:14:08.027Z,14.33
2023-03-20T20:19:11.871Z,16.47
2023-03-20T20:24:16.297Z,17.73
2023-03-20T20:29:19.027Z,12.43
2023-03-20T20:39:45.455Z,7.90
2023-03-20T20:44:47.881Z,10.03
2023-03-20T20:49:50.316Z,9.03
2023-03-20T20:54:52.646Z,8.17
2023-03-20T20:59:59.642Z,8.97
2023-03-20T21:05:01.695Z,10.43
2023-03-20T21:10:05.871Z,8.70
2023-03-20T21:15:08.402Z,11.80
2023-03-20T21:20:11.975Z,14.93
2023-03-20T21:25:18.690Z,10.13
2023-03-20T21:30:22.879Z,9.27
2023-03-20T21:35:26.768Z,10.17
2023-03-20T21:40:28.726Z,8.57
2023-03-20T21:51:42.206Z,12.13
2023-03-20T21:57:04.627Z,14.57
2023-03-20T22:13:14.252Z,8.57
2023-03-20T22:18:43.867Z,12.00
2023-03-20T22:23:58.415Z,12.90
2023-03-20T22:34:39.537Z,12.53
2023-03-20T22:40:03.279Z,9.77
2023-03-20T22:45:05.988Z,10.70
2023-03-20T22:49:58.686Z,12.53
2023-03-20T22:55:00.971Z,12.00
2023-03-20T23:00:04.531Z,12.97
2023-03-20T23:05:07.050Z,13.00
2023-03-20T23:10:10.003Z,12.07
2023-03-20T23:15:12.067Z,11.20
2023-03-20T23:20:19.592Z,13.53
2023-03-20T23:25:36.427Z,16.57
2023-03-20T23:30:56.676Z,10.80
2023-03-20T23:36:16.157Z,12.23
2023-03-20T23:41:36.746Z,11.03
2023-03-20T23:46:43.406Z,11.57
2023-03-20T23:51:45.489Z,13.40
2023-03-20T23:56:47.757Z,8.60
